Time;durP1;ratioP1;P1;durP2;ratioP2;P2;SDS_P1;SDS_P2;PMS_P1;PMS_P2;Temp;Humidity;BMP_temperature;BMP_pressure;BME280_temperature;BME280_humidity;BME280_pressure;Samples;Min_cycle;Max_cycle;Signal;HPM_P1;HPM_P2
2022/03/20 00:01:09;;;;;;;67.07;34.13;;;;;;;;;;5072116;28;20111;-64
2022/03/20 00:03:36;;;;;;;73.22;34.55;;;;;;;;;;5073606;28;20503;-64
2022/03/20 00:06:03;;;;;;;76.47;34.70;;;;;;;;;;5073510;28;20032;-63
2022/03/20 00:08:30;;;;;;;79.00;36.83;;;;;;;;;;5073507;28;20032;-63
2022/03/20 00:10:59;;;;;;;71.30;34.60;;;;;;;;;;5070320;28;20065;-63
2022/03/20 00:13:27;;;;;;;73.68;38.13;;;;;;;;;;5071477;28;20131;-64
2022/03/20 00:15:54;;;;;;;78.53;38.13;;;;;;;;;;5073775;28;20032;-63
2022/03/20 00:18:21;;;;;;;73.20;35.92;;;;;;;;;;5073744;28;20495;-64
2022/03/20 00:20:48;;;;;;;75.72;36.60;;;;;;;;;;5070016;28;20043;-64
2022/03/20 00:23:16;;;;;;;84.03;39.20;;;;;;;;;;5068387;28;20032;-63
2022/03/20 00:25:44;;;;;;;80.18;38.63;;;;;;;;;;5072500;28;20119;-63
2022/03/20 00:28:14;;;;;;;77.38;36.90;;;;;;;;;;5069239;28;20066;-64
2022/03/20 00:30:40;;;;;;;78.53;37.05;;;;;;;;;;5070022;28;20033;-64
2022/03/20 00:33:07;;;;;;;82.80;39.22;;;;;;;;;;5071307;28;20024;-63
2022/03/20 00:35:33;;;;;;;86.07;39.20;;;;;;;;;;5070973;28;20097;-64
2022/03/20 00:37:59;;;;;;;83.15;38.95;;;;;;;;;;5072406;28;20021;-63
2022/03/20 00:40:27;;;;;;;77.45;37.40;;;;;;;;;;5071446;28;20139;-63
2022/03/20 00:42:55;;;;;;;79.65;38.42;;;;;;;;;;5070928;28;20038;-63
2022/03/20 00:45:21;;;;;;;79.90;37.38;;;;;;;;;;5072213;28;20030;-63
2022/03/20 00:47:48;;;;;;;82.93;37.30;;;;;;;;;;5070804;28;20036;-64
2022/03/20 00:50:14;;;;;;;76.68;36.97;;;;;;;;;;5068146;28;20079;-63
2022/03/20 00:52:40;;;;;;;82.07;37.65;;;;;;;;;;5068894;28;20029;-64
2022/03/20 00:55:07;;;;;;;83.25;38.95;;;;;;;;;;5072192;28;20013;-63
2022/03/20 00:57:33;;;;;;;80.10;37.80;;;;;;;;;;5071809;28;20412;-64
2022/03/20 00:59:59;;;;;;;74.93;36.25;;;;;;;;;;5071555;28;20020;-63
2022/03/20 01:02:25;;;;;;;85.35;36.00;;;;;;;;;;5071898;28;20081;-64
2022/03/20 01:04:51;;;;;;;76.07;38.13;;;;;;;;;;5066291;28;20029;-64
2022/03/20 01:07:17;;;;;;;77.28;36.53;;;;;;;;;;5066135;28;20032;-63
2022/03/20 01:09:43;;;;;;;85.90;37.00;;;;;;;;;;5071644;28;20099;-63
2022/03/20 01:12:10;;;;;;;75.63;37.08;;;;;;;;;;5070392;28;20048;-63
2022/03/20 01:14:37;;;;;;;75.25;36.17;;;;;;;;;;5072184;28;20033;-64
2022/03/20 01:17:04;;;;;;;85.30;38.70;;;;;;;;;;5067269;28;20025;-64
2022/03/20 01:19:32;;;;;;;83.07;38.83;;;;;;;;;;5069362;28;20030;-63
2022/03/20 01:21:59;;;;;;;77.53;37.90;;;;;;;;;;5060797;28;20027;-64
2022/03/20 01:24:27;;;;;;;84.85;40.75;;;;;;;;;;5066539;28;20029;-63
2022/03/20 01:26:54;;;;;;;87.10;40.22;;;;;;;;;;5070762;28;20035;-63
2022/03/20 01:29:20;;;;;;;88.07;38.38;;;;;;;;;;5069558;28;20031;-64
2022/03/20 01:31:46;;;;;;;89.05;40.42;;;;;;;;;;5068591;28;20035;-63
2022/03/20 01:34:12;;;;;;;83.97;39.75;;;;;;;;;;5070992;28;20834;-64
2022/03/20 01:36:38;;;;;;;92.57;42.08;;;;;;;;;;5071479;28;20100;-63
2022/03/20 01:39:04;;;;;;;81.18;39.05;;;;;;;;;;5070024;28;20036;-63
2022/03/20 01:41:31;;;;;;;88.03;40.95;;;;;;;;;;5068283;28;20440;-64
2022/03/20 01:43:59;;;;;;;69.57;35.47;;;;;;;;;;5068180;28;20047;-63
2022/03/20 01:46:25;;;;;;;79.30;36.53;;;;;;;;;;5071299;28;20056;-64
2022/03/20 01:48:51;;;;;;;72.45;35.15;;;;;;;;;;5068916;28;20423;-64
2022/03/20 01:52:10;;;;;;;76.10;36.80;;;;;;;;;;5069512;28;20484;-63
2022/03/20 01:54:05;;;;;;;83.30;38.63;;;;;;;;;;5059930;28;20044;-63
2022/03/20 01:56:33;;;;;;;73.15;35.10;;;;;;;;;;5075382;28;20036;-63
2022/03/20 01:59:05;;;;;;;79.32;36.90;;;;;;;;;;5076443;28;20028;-64
2022/03/20 02:01:31;;;;;;;77.70;36.20;;;;;;;;;;5085484;28;20040;-63
2022/03/20 02:03:57;;;;;;;82.25;38.70;;;;;;;;;;5085368;28;20074;-63
2022/03/20 02:06:25;;;;;;;103.40;41.03;;;;;;;;;;5087979;28;20383;-63
2022/03/20 02:08:52;;;;;;;86.68;42.50;;;;;;;;;;5078797;28;20024;-63
2022/03/20 02:11:18;;;;;;;84.97;41.97;;;;;;;;;;5080157;28;20021;-63
2022/03/20 02:13:45;;;;;;;93.85;41.70;;;;;;;;;;5085316;28;20619;-64
2022/03/20 02:16:12;;;;;;;83.38;38.88;;;;;;;;;;5087357;28;20028;-64
2022/03/20 02:18:39;;;;;;;90.43;39.38;;;;;;;;;;5080951;28;20433;-64
2022/03/20 02:21:05;;;;;;;90.70;42.28;;;;;;;;;;5081827;28;20467;-63
2022/03/20 02:23:34;;;;;;;88.45;42.28;;;;;;;;;;5082454;28;20047;-63
2022/03/20 02:26:03;;;;;;;86.97;42.30;;;;;;;;;;5082035;28;20452;-63
2022/03/20 02:28:29;;;;;;;88.50;44.88;;;;;;;;;;5083089;28;20032;-63
2022/03/20 02:30:55;;;;;;;82.22;39.28;;;;;;;;;;5084598;28;20067;-63
2022/03/20 02:33:23;;;;;;;82.88;40.55;;;;;;;;;;5079258;28;20545;-63
2022/03/20 02:35:50;;;;;;;87.50;39.60;;;;;;;;;;5067229;28;20059;-63
2022/03/20 02:38:18;;;;;;;76.88;37.67;;;;;;;;;;5085292;28;20040;-63
2022/03/20 02:40:45;;;;;;;86.47;39.55;;;;;;;;;;5084167;28;20029;-64
2022/03/20 02:43:11;;;;;;;81.18;38.72;;;;;;;;;;5078690;28;20069;-63
2022/03/20 02:45:37;;;;;;;83.53;38.88;;;;;;;;;;5082570;28;20047;-63
2022/03/20 02:48:04;;;;;;;89.50;39.55;;;;;;;;;;5081127;28;20105;-63
2022/03/20 02:50:32;;;;;;;86.00;40.58;;;;;;;;;;5076807;28;20033;-64
2022/03/20 02:53:07;;;;;;;84.38;40.35;;;;;;;;;;5080605;28;20024;-64
2022/03/20 02:55:37;;;;;;;93.75;42.50;;;;;;;;;;5083430;28;20036;-64
2022/03/20 02:58:25;;;;;;;92.15;43.05;;;;;;;;;;5088084;28;20029;-63
2022/03/20 03:00:54;;;;;;;91.57;42.17;;;;;;;;;;5080900;28;20040;-63
2022/03/20 03:03:21;;;;;;;91.30;43.97;;;;;;;;;;5080688;28;20020;-63
2022/03/20 03:05:47;;;;;;;97.57;45.65;;;;;;;;;;5083002;28;20392;-63
2022/03/20 03:11:00;;;;;;;91.22;42.30;;;;;;;;;;5085485;28;20075;-63
2022/03/20 03:13:34;;;;;;;91.97;43.70;;;;;;;;;;5086077;28;20053;-63
2022/03/20 03:16:02;;;;;;;98.65;44.40;;;;;;;;;;5077566;28;20032;-64
2022/03/20 03:18:28;;;;;;;91.85;43.25;;;;;;;;;;5077229;28;20435;-63
2022/03/20 03:20:54;;;;;;;102.82;45.83;;;;;;;;;;5072317;28;20024;-64
2022/03/20 03:23:21;;;;;;;103.85;46.88;;;;;;;;;;5069899;28;20037;-64
2022/03/20 03:25:47;;;;;;;114.45;45.50;;;;;;;;;;5067799;28;20049;-63
2022/03/20 03:28:14;;;;;;;104.43;46.97;;;;;;;;;;5073256;28;20035;-63
2022/03/20 03:30:43;;;;;;;103.28;46.47;;;;;;;;;;5072083;28;20024;-64
2022/03/20 03:33:09;;;;;;;102.10;47.67;;;;;;;;;;5071758;28;20399;-63
2022/03/20 03:35:41;;;;;;;99.13;47.78;;;;;;;;;;5073753;28;20027;-63
2022/03/20 03:38:08;;;;;;;102.65;47.45;;;;;;;;;;5074154;28;20040;-64
2022/03/20 03:40:35;;;;;;;111.45;47.70;;;;;;;;;;5074175;28;20034;-63
2022/03/20 03:43:02;;;;;;;100.47;47.30;;;;;;;;;;5072926;28;20484;-63
2022/03/20 03:45:29;;;;;;;112.65;50.33;;;;;;;;;;5071476;28;20036;-64
2022/03/20 03:47:55;;;;;;;111.55;53.15;;;;;;;;;;5064497;28;20510;-64
2022/03/20 03:50:21;;;;;;;102.28;45.40;;;;;;;;;;5070373;28;20021;-63
2022/03/20 03:52:48;;;;;;;100.45;47.83;;;;;;;;;;5071982;28;20072;-63
2022/03/20 03:55:14;;;;;;;105.30;50.40;;;;;;;;;;5073181;28;20028;-64
2022/03/20 03:57:47;;;;;;;107.95;48.42;;;;;;;;;;5073846;28;20506;-64
2022/03/20 04:00:14;;;;;;;100.65;45.50;;;;;;;;;;5073820;28;20507;-63
2022/03/20 04:02:45;;;;;;;107.93;49.40;;;;;;;;;;5058320;28;20369;-64
2022/03/20 04:05:11;;;;;;;99.32;46.95;;;;;;;;;;5070332;28;20085;-64
2022/03/20 04:07:37;;;;;;;105.72;48.05;;;;;;;;;;5073140;28;20070;-64
2022/03/20 04:10:05;;;;;;;102.65;47.83;;;;;;;;;;5061366;28;20082;-64
2022/03/20 04:12:31;;;;;;;106.43;48.67;;;;;;;;;;5060280;28;20105;-63
2022/03/20 04:15:02;;;;;;;110.57;50.85;;;;;;;;;;5072856;28;20020;-64
2022/03/20 04:17:31;;;;;;;112.78;47.90;;;;;;;;;;5073844;28;20388;-64
2022/03/20 04:19:58;;;;;;;107.30;48.42;;;;;;;;;;5073276;28;20033;-64
2022/03/20 04:22:24;;;;;;;105.13;48.83;;;;;;;;;;5061253;28;20036;-64
2022/03/20 04:24:50;;;;;;;109.38;49.78;;;;;;;;;;5068694;28;20136;-64
2022/03/20 04:27:18;;;;;;;104.93;48.70;;;;;;;;;;5054243;28;20405;-64
2022/03/20 04:29:44;;;;;;;105.38;49.90;;;;;;;;;;5065524;28;20040;-64
2022/03/20 04:32:11;;;;;;;97.55;46.80;;;;;;;;;;5060116;28;20111;-63
2022/03/20 04:34:38;;;;;;;105.30;48.97;;;;;;;;;;5072316;28;20132;-64
2022/03/20 04:37:05;;;;;;;95.93;46.88;;;;;;;;;;5071012;28;20020;-64
2022/03/20 04:39:33;;;;;;;107.47;48.53;;;;;;;;;;5071859;28;20022;-63
2022/03/20 04:41:59;;;;;;;107.60;49.78;;;;;;;;;;5063841;28;20066;-63
2022/03/20 04:44:26;;;;;;;114.28;52.40;;;;;;;;;;5073172;28;20028;-63
2022/03/20 04:46:52;;;;;;;107.15;49.13;;;;;;;;;;5072367;28;20464;-64
2022/03/20 05:00:23;;;;;;;110.78;52.55;;;;;;;;;;5048323;28;20067;-63
2022/03/20 05:02:50;;;;;;;110.40;49.05;;;;;;;;;;5030975;28;20045;-64
2022/03/20 05:05:16;;;;;;;107.13;50.95;;;;;;;;;;5031027;28;20038;-64
2022/03/20 05:07:43;;;;;;;115.57;50.35;;;;;;;;;;5030743;28;20160;-64
2022/03/20 05:15:39;;;;;;;107.20;51.50;;;;;;;;;;5049598;28;20029;-63
2022/03/20 05:18:07;;;;;;;108.65;49.65;;;;;;;;;;5049904;28;20039;-64
2022/03/20 05:20:33;;;;;;;115.65;52.45;;;;;;;;;;5049963;28;20025;-64
2022/03/20 05:22:59;;;;;;;110.03;49.97;;;;;;;;;;5046686;28;20482;-64
2022/03/20 05:25:28;;;;;;;115.20;52.38;;;;;;;;;;5047873;28;20516;-63
2022/03/20 05:27:54;;;;;;;106.07;49.95;;;;;;;;;;5049047;28;20439;-63
2022/03/20 05:30:20;;;;;;;111.95;51.50;;;;;;;;;;5046020;28;20505;-63
2022/03/20 05:32:48;;;;;;;110.97;51.53;;;;;;;;;;5049300;28;20119;-63
2022/03/20 05:35:15;;;;;;;108.43;50.33;;;;;;;;;;5048990;28;20496;-63
2022/03/20 05:37:42;;;;;;;107.13;50.97;;;;;;;;;;5063869;28;20162;-63
2022/03/20 05:40:08;;;;;;;107.53;50.70;;;;;;;;;;5071011;28;20089;-63
2022/03/20 05:42:36;;;;;;;109.88;51.08;;;;;;;;;;5070180;28;20060;-63
2022/03/20 05:45:02;;;;;;;109.40;51.63;;;;;;;;;;5072238;28;20017;-64
2022/03/20 05:47:31;;;;;;;107.60;49.78;;;;;;;;;;5067429;28;20115;-64
2022/03/20 05:50:01;;;;;;;106.50;51.03;;;;;;;;;;5072007;28;20550;-64
2022/03/20 05:52:29;;;;;;;116.78;52.38;;;;;;;;;;5070651;28;20048;-64
2022/03/20 05:54:55;;;;;;;110.15;51.10;;;;;;;;;;5070834;28;20111;-64
2022/03/20 06:00:16;;;;;;;111.55;50.85;;;;;;;;;;5055686;28;20035;-63
2022/03/20 06:02:44;;;;;;;110.82;50.70;;;;;;;;;;5071585;28;20044;-63
2022/03/20 06:05:14;;;;;;;116.03;52.40;;;;;;;;;;5069672;28;20392;-64
2022/03/20 06:07:41;;;;;;;113.72;51.42;;;;;;;;;;5070371;28;20455;-64
2022/03/20 06:10:09;;;;;;;111.93;49.58;;;;;;;;;;5068575;28;20044;-63
2022/03/20 06:12:35;;;;;;;106.85;49.40;;;;;;;;;;5051697;28;20048;-63
2022/03/20 06:15:01;;;;;;;109.80;49.53;;;;;;;;;;5052051;28;20031;-64
2022/03/20 06:17:28;;;;;;;119.25;53.35;;;;;;;;;;5052160;28;20040;-63
2022/03/20 06:19:54;;;;;;;107.90;50.95;;;;;;;;;;5053183;28;20032;-63
2022/03/20 06:22:20;;;;;;;103.82;49.78;;;;;;;;;;5067460;28;20047;-64
2022/03/20 06:24:46;;;;;;;107.13;51.08;;;;;;;;;;5071242;28;20033;-64
2022/03/20 06:27:12;;;;;;;119.50;51.97;;;;;;;;;;5071264;28;20025;-63
2022/03/20 06:29:39;;;;;;;104.60;49.15;;;;;;;;;;5073202;28;20389;-63
2022/03/20 06:32:05;;;;;;;106.28;49.22;;;;;;;;;;5064468;28;20016;-64
2022/03/20 06:34:33;;;;;;;108.60;51.53;;;;;;;;;;5074933;28;20032;-63
2022/03/20 06:36:59;;;;;;;110.97;52.70;;;;;;;;;;5070871;28;20024;-63
2022/03/20 06:39:25;;;;;;;115.10;51.83;;;;;;;;;;5083044;28;20024;-64
2022/03/20 06:41:51;;;;;;;107.25;51.72;;;;;;;;;;5082138;28;20035;-63
2022/03/20 06:44:17;;;;;;;112.53;52.63;;;;;;;;;;5084402;28;20035;-64
2022/03/20 06:46:44;;;;;;;108.20;50.58;;;;;;;;;;5075394;28;20020;-63
2022/03/20 06:49:11;;;;;;;110.90;50.53;;;;;;;;;;5074870;28;20037;-63
2022/03/20 06:51:37;;;;;;;114.13;54.33;;;;;;;;;;5073743;28;20024;-63
2022/03/20 06:54:04;;;;;;;116.20;52.28;;;;;;;;;;5083044;28;20085;-64
2022/03/20 06:56:31;;;;;;;108.07;50.92;;;;;;;;;;5079146;28;20028;-63
2022/03/20 06:58:57;;;;;;;111.28;50.08;;;;;;;;;;5093757;28;20468;-63
2022/03/20 07:01:23;;;;;;;110.72;50.05;;;;;;;;;;5084141;28;20081;-63
2022/03/20 07:03:49;;;;;;;118.13;54.53;;;;;;;;;;5081734;28;20058;-63
2022/03/20 07:06:17;;;;;;;115.22;53.88;;;;;;;;;;5078562;28;20038;-63
2022/03/20 07:08:43;;;;;;;118.20;52.80;;;;;;;;;;5074990;28;20051;-63
2022/03/20 07:11:09;;;;;;;111.88;50.58;;;;;;;;;;5073388;28;20025;-63
2022/03/20 07:13:53;;;;;;;115.68;53.85;;;;;;;;;;5071292;28;20075;-63
2022/03/20 07:16:20;;;;;;;122.53;55.65;;;;;;;;;;5076698;28;20028;-63
2022/03/20 07:18:46;;;;;;;113.53;51.65;;;;;;;;;;5073663;28;20025;-63
2022/03/20 07:21:14;;;;;;;113.03;51.67;;;;;;;;;;5071840;28;21682;-63
2022/03/20 07:23:40;;;;;;;115.70;51.97;;;;;;;;;;5068413;28;20448;-64
2022/03/20 07:31:36;;;;;;;113.15;51.75;;;;;;;;;;5077406;28;20064;-63
2022/03/20 07:34:03;;;;;;;123.38;55.08;;;;;;;;;;5069719;28;20051;-63
2022/03/20 07:36:29;;;;;;;120.18;51.83;;;;;;;;;;5078942;28;20054;-63
2022/03/20 07:38:55;;;;;;;118.82;54.78;;;;;;;;;;5081724;28;20029;-63
2022/03/20 07:41:21;;;;;;;119.38;53.97;;;;;;;;;;5068600;28;20044;-63
2022/03/20 07:43:48;;;;;;;109.80;52.80;;;;;;;;;;5069589;28;20037;-63
2022/03/20 07:46:14;;;;;;;121.20;54.67;;;;;;;;;;5084438;28;20040;-63
2022/03/20 07:48:41;;;;;;;117.68;54.30;;;;;;;;;;5075000;28;20033;-63
2022/03/20 07:51:07;;;;;;;113.60;53.20;;;;;;;;;;5073861;28;20024;-63
2022/03/20 07:53:33;;;;;;;112.10;52.17;;;;;;;;;;5072535;28;20145;-64
2022/03/20 07:55:59;;;;;;;116.30;52.55;;;;;;;;;;5073623;28;20056;-64
2022/03/20 07:58:25;;;;;;;118.95;54.28;;;;;;;;;;5074017;28;20475;-64
2022/03/20 08:00:52;;;;;;;113.60;52.58;;;;;;;;;;5072138;28;20153;-64
2022/03/20 08:03:18;;;;;;;107.63;51.28;;;;;;;;;;5070430;28;20476;-64
2022/03/20 08:05:44;;;;;;;116.90;54.03;;;;;;;;;;5067006;28;20024;-63
2022/03/20 08:08:14;;;;;;;106.78;52.22;;;;;;;;;;5067746;28;20040;-64
2022/03/20 08:10:41;;;;;;;114.85;52.53;;;;;;;;;;5064735;28;20029;-63
2022/03/20 08:13:09;;;;;;;112.93;52.40;;;;;;;;;;5076285;28;20040;-64
2022/03/20 08:15:35;;;;;;;120.97;55.08;;;;;;;;;;5070136;28;20438;-63
2022/03/20 08:18:02;;;;;;;117.03;55.08;;;;;;;;;;5075486;28;20073;-64
2022/03/20 08:20:28;;;;;;;110.57;53.97;;;;;;;;;;5066712;28;20780;-64
2022/03/20 08:22:54;;;;;;;115.05;53.47;;;;;;;;;;5066105;28;20044;-63
2022/03/20 08:25:20;;;;;;;116.95;53.88;;;;;;;;;;5068842;28;20506;-64
2022/03/20 08:27:48;;;;;;;112.97;53.00;;;;;;;;;;5069904;28;20028;-63
2022/03/20 08:30:15;;;;;;;116.13;53.33;;;;;;;;;;5070542;28;20039;-64
2022/03/20 08:32:48;;;;;;;120.82;55.47;;;;;;;;;;5070518;28;20158;-64
2022/03/20 08:35:14;;;;;;;;;;;;;;;;;;5066895;28;20033;-64
2022/03/20 08:37:43;;;;;;;119.18;52.88;;;;;;;;;;5071271;28;19916;-64
2022/03/20 08:40:15;;;;;;;119.70;53.70;;;;;;;;;;5069465;28;20040;-64
2022/03/20 08:42:42;;;;;;;122.45;54.97;;;;;;;;;;5066777;28;20503;-64
2022/03/20 08:45:08;;;;;;;116.18;51.42;;;;;;;;;;5072662;28;20029;-64
2022/03/20 08:47:37;;;;;;;118.45;53.95;;;;;;;;;;5067879;28;20024;-64
2022/03/20 08:50:04;;;;;;;107.78;51.60;;;;;;;;;;5070828;28;20029;-64
2022/03/20 08:52:30;;;;;;;115.88;53.08;;;;;;;;;;5070778;28;20115;-64
2022/03/20 08:54:56;;;;;;;120.80;52.22;;;;;;;;;;5070660;28;20123;-63
2022/03/20 08:57:25;;;;;;;112.93;53.42;;;;;;;;;;5071336;28;20086;-63
2022/03/20 08:59:54;;;;;;;111.13;50.85;;;;;;;;;;5070225;28;20043;-64
2022/03/20 09:02:20;;;;;;;116.43;54.28;;;;;;;;;;5069850;28;20029;-64
2022/03/20 09:04:46;;;;;;;114.75;53.38;;;;;;;;;;5073664;28;20046;-64
2022/03/20 09:07:12;;;;;;;113.20;53.75;;;;;;;;;;5070637;28;20024;-64
2022/03/20 09:09:38;;;;;;;113.28;53.30;;;;;;;;;;5069937;28;20016;-64
2022/03/20 09:12:05;;;;;;;118.88;54.20;;;;;;;;;;5069307;28;20116;-64
2022/03/20 09:14:31;;;;;;;117.45;53.90;;;;;;;;;;5070921;28;20080;-64
2022/03/20 09:19:42;;;;;;;117.55;53.13;;;;;;;;;;5069928;28;20032;-64
2022/03/20 09:22:11;;;;;;;110.68;52.38;;;;;;;;;;5069377;28;20029;-64
2022/03/20 09:24:38;;;;;;;116.05;51.45;;;;;;;;;;5061543;28;20488;-64
2022/03/20 09:27:05;;;;;;;101.72;49.03;;;;;;;;;;5071496;28;20434;-64
2022/03/20 09:29:31;;;;;;;109.10;50.75;;;;;;;;;;5070892;28;20040;-64
2022/03/20 09:31:58;;;;;;;104.25;51.72;;;;;;;;;;5068736;28;20035;-64
2022/03/20 09:34:24;;;;;;;109.03;50.25;;;;;;;;;;5073777;28;20023;-64
2022/03/20 09:36:50;;;;;;;117.20;51.88;;;;;;;;;;5069687;28;20024;-61
2022/03/20 09:39:16;;;;;;;111.40;51.92;;;;;;;;;;5066681;28;20056;-62
2022/03/20 09:41:47;;;;;;;105.10;50.08;;;;;;;;;;5068307;28;20028;-61
2022/03/20 09:44:15;;;;;;;112.07;50.38;;;;;;;;;;5066515;28;20081;-61
2022/03/20 09:46:42;;;;;;;109.72;49.92;;;;;;;;;;5070056;28;20253;-61
2022/03/20 09:49:08;;;;;;;110.20;49.58;;;;;;;;;;5075965;28;20066;-61
2022/03/20 09:51:36;;;;;;;102.68;46.72;;;;;;;;;;5076566;28;20029;-61
2022/03/20 09:54:02;;;;;;;102.82;47.05;;;;;;;;;;5080449;28;20028;-62
2022/03/20 09:56:29;;;;;;;101.65;48.15;;;;;;;;;;5074775;28;20273;-61
2022/03/20 09:58:55;;;;;;;99.07;48.45;;;;;;;;;;5072836;28;20031;-61
2022/03/20 10:01:24;;;;;;;97.25;48.95;;;;;;;;;;5077221;28;20020;-61
2022/03/20 10:04:06;;;;;;;93.22;47.33;;;;;;;;;;5084435;28;20039;-61
2022/03/20 10:06:35;;;;;;;97.47;45.95;;;;;;;;;;5072998;28;20074;-61
2022/03/20 10:09:03;;;;;;;93.22;44.25;;;;;;;;;;5074606;28;20104;-61
2022/03/20 10:11:29;;;;;;;92.75;44.40;;;;;;;;;;5080483;28;20036;-61
2022/03/20 10:14:05;;;;;;;95.28;44.17;;;;;;;;;;5083814;28;20044;-61
2022/03/20 10:16:31;;;;;;;92.82;43.10;;;;;;;;;;5065078;28;20053;-61
2022/03/20 10:18:57;;;;;;;91.82;42.55;;;;;;;;;;5078577;28;20043;-62
2022/03/20 10:21:42;;;;;;;88.32;43.53;;;;;;;;;;5077140;28;20499;-61
2022/03/20 10:24:18;;;;;;;85.63;41.33;;;;;;;;;;5077898;28;20233;-61
2022/03/20 10:26:45;;;;;;;93.90;43.03;;;;;;;;;;5076337;28;20183;-61
2022/03/20 10:29:15;;;;;;;93.22;41.97;;;;;;;;;;5077726;28;20023;-61
2022/03/20 10:31:49;;;;;;;89.53;42.95;;;;;;;;;;5078807;28;20037;-61
2022/03/20 10:34:16;;;;;;;93.18;43.90;;;;;;;;;;5076967;28;20028;-61
2022/03/20 10:36:45;;;;;;;87.97;41.53;;;;;;;;;;5075521;28;20032;-61
2022/03/20 10:39:14;;;;;;;91.20;41.42;;;;;;;;;;5082724;28;20020;-62
2022/03/20 10:41:40;;;;;;;86.78;41.92;;;;;;;;;;5074772;28;20595;-61
2022/03/20 10:44:25;;;;;;;90.70;44.00;;;;;;;;;;5068320;28;20021;-61
2022/03/20 10:46:58;;;;;;;83.18;39.72;;;;;;;;;;5068708;28;20047;-61
2022/03/20 10:49:25;;;;;;;88.55;41.33;;;;;;;;;;5074274;28;20032;-61
2022/03/20 10:52:08;;;;;;;81.38;40.33;;;;;;;;;;5071778;28;20032;-61
2022/03/20 10:54:41;;;;;;;79.53;41.27;;;;;;;;;;5072726;28;20082;-61
2022/03/20 10:57:08;;;;;;;101.07;42.80;;;;;;;;;;5073023;28;20382;-61
2022/03/20 10:59:34;;;;;;;79.47;39.72;;;;;;;;;;5063103;28;20433;-61
2022/03/20 11:02:02;;;;;;;90.72;43.03;;;;;;;;;;5069134;28;20024;-60
2022/03/20 11:04:28;;;;;;;87.68;41.53;;;;;;;;;;5072108;28;20039;-61
2022/03/20 11:06:57;;;;;;;85.85;41.15;;;;;;;;;;5071295;28;20154;-61
2022/03/20 11:09:23;;;;;;;85.85;44.03;;;;;;;;;;5078076;28;20483;-61
2022/03/20 11:11:51;;;;;;;101.68;44.38;;;;;;;;;;5072301;28;20040;-61
2022/03/20 11:14:21;;;;;;;84.95;42.85;;;;;;;;;;5076680;28;20028;-61
2022/03/20 11:16:49;;;;;;;76.85;39.85;;;;;;;;;;5081543;28;20024;-61
2022/03/20 11:19:17;;;;;;;83.93;41.28;;;;;;;;;;5083983;28;20107;-61
2022/03/20 11:21:47;;;;;;;82.22;39.08;;;;;;;;;;5076641;28;20020;-61
2022/03/20 11:24:16;;;;;;;85.25;40.20;;;;;;;;;;5077724;28;20031;-61
2022/03/20 11:26:43;;;;;;;80.18;39.60;;;;;;;;;;5081901;28;20056;-60
2022/03/20 11:29:11;;;;;;;81.93;39.88;;;;;;;;;;5072909;28;20759;-61
2022/03/20 11:31:38;;;;;;;84.03;41.50;;;;;;;;;;5069467;28;20059;-61
2022/03/20 11:34:08;;;;;;;83.95;42.22;;;;;;;;;;5071217;28;20504;-61
2022/03/20 11:36:53;;;;;;;83.78;39.92;;;;;;;;;;5071138;28;20029;-61
2022/03/20 11:39:19;;;;;;;70.75;36.78;;;;;;;;;;5080436;28;20102;-61
2022/03/20 11:41:45;;;;;;;82.85;41.45;;;;;;;;;;5074053;28;20146;-61
2022/03/20 11:44:16;;;;;;;79.80;39.80;;;;;;;;;;5072667;28;20302;-61
2022/03/20 11:46:45;;;;;;;89.10;40.25;;;;;;;;;;5072059;28;20040;-61
2022/03/20 11:49:20;;;;;;;78.70;38.10;;;;;;;;;;5078682;28;20052;-61
2022/03/20 11:51:53;;;;;;;77.53;38.47;;;;;;;;;;5072266;28;20041;-60
2022/03/20 11:54:19;;;;;;;;;;;;;;;;;;5079798;28;20024;-61
2022/03/20 11:56:48;;;;;;;77.40;38.33;;;;;;;;;;5073917;28;19916;-61
2022/03/20 11:59:44;;;;;;;73.22;35.00;;;;;;;;;;5073230;28;20107;-61
2022/03/20 12:02:12;;;;;;;72.15;35.20;;;;;;;;;;5067649;28;20503;-61
2022/03/20 12:04:45;;;;;;;74.18;35.13;;;;;;;;;;5067939;28;20036;-61
2022/03/20 12:07:19;;;;;;;98.80;39.25;;;;;;;;;;5067644;28;20469;-61
2022/03/20 12:10:10;;;;;;;71.45;35.15;;;;;;;;;;5069795;28;20476;-61
2022/03/20 12:12:54;;;;;;;82.25;37.10;;;;;;;;;;5076210;28;20430;-61
2022/03/20 12:15:23;;;;;;;72.65;35.70;;;;;;;;;;5075367;28;20112;-61
2022/03/20 12:17:57;;;;;;;70.03;35.78;;;;;;;;;;5064869;28;20468;-61
2022/03/20 12:20:23;;;;;;;;;;;;;;;;;;5068285;28;20420;-61
2022/03/20 12:22:49;;;;;;;67.57;34.85;;;;;;;;;;5075636;28;19915;-61
2022/03/20 12:25:35;;;;;;;67.68;34.65;;;;;;;;;;5068318;28;20040;-61
2022/03/20 12:28:01;;;;;;;78.95;37.97;;;;;;;;;;5078947;28;20119;-61
2022/03/20 12:30:27;;;;;;;78.50;38.08;;;;;;;;;;5076129;28;20123;-61
2022/03/20 12:32:55;;;;;;;71.82;34.55;;;;;;;;;;5074890;28;20031;-61
2022/03/20 12:35:45;;;;;;;84.22;40.90;;;;;;;;;;5077135;28;20020;-61
2022/03/20 12:38:41;;;;;;;75.35;35.50;;;;;;;;;;5073399;28;20044;-61
2022/03/20 12:41:26;;;;;;;69.68;35.45;;;;;;;;;;5080469;28;20036;-61
2022/03/20 12:44:01;;;;;;;67.47;35.97;;;;;;;;;;5076876;28;20048;-61
2022/03/20 12:46:28;;;;;;;71.78;34.08;;;;;;;;;;5077205;28;20399;-61
2022/03/20 12:48:54;;;;;;;78.05;37.72;;;;;;;;;;5082250;28;20017;-61
2022/03/20 12:51:32;;;;;;;65.13;32.90;;;;;;;;;;5078426;28;20025;-61
2022/03/20 12:54:02;;;;;;;64.32;31.77;;;;;;;;;;5080806;28;20047;-61
2022/03/20 12:56:28;;;;;;;73.13;35.60;;;;;;;;;;5083645;28;20021;-61
2022/03/20 12:58:54;;;;;;;68.60;35.45;;;;;;;;;;5081147;28;20503;-61
2022/03/20 13:01:21;;;;;;;71.80;37.33;;;;;;;;;;5076504;28;20368;-60
2022/03/20 13:03:48;;;;;;;74.53;35.72;;;;;;;;;;5075369;28;20512;-61
2022/03/20 13:06:15;;;;;;;71.25;34.70;;;;;;;;;;5066953;28;20510;-62
2022/03/20 13:08:44;;;;;;;74.78;36.55;;;;;;;;;;5066917;28;20033;-61
2022/03/20 13:14:03;;;;;;;68.53;34.63;;;;;;;;;;5083450;28;20044;-61
2022/03/20 13:16:30;;;;;;;66.95;34.20;;;;;;;;;;5080919;28;20549;-61
2022/03/20 13:18:57;;;;;;;70.53;35.65;;;;;;;;;;5079302;28;20070;-61
2022/03/20 13:21:24;;;;;;;71.28;35.13;;;;;;;;;;5078971;28;20025;-61
2022/03/20 13:23:50;;;;;;;63.45;34.95;;;;;;;;;;5082548;28;20024;-61
2022/03/20 13:26:20;;;;;;;76.32;34.78;;;;;;;;;;5076146;28;20040;-61
2022/03/20 13:28:47;;;;;;;68.30;35.95;;;;;;;;;;5079702;28;21007;-61
2022/03/20 13:31:21;;;;;;;74.85;35.85;;;;;;;;;;5082629;28;20395;-61
2022/03/20 13:33:52;;;;;;;66.68;34.22;;;;;;;;;;5085494;28;20031;-61
2022/03/20 13:36:18;;;;;;;74.05;36.42;;;;;;;;;;5076405;28;20019;-61
2022/03/20 13:38:46;;;;;;;70.40;36.33;;;;;;;;;;5074018;28;20054;-61
2022/03/20 13:41:14;;;;;;;77.55;37.55;;;;;;;;;;5081111;28;20024;-61
2022/03/20 13:43:40;;;;;;;78.32;37.83;;;;;;;;;;5084046;28;20095;-61
2022/03/20 13:46:11;;;;;;;67.03;35.38;;;;;;;;;;5074376;28;20034;-61
2022/03/20 13:48:37;;;;;;;71.53;36.28;;;;;;;;;;5071983;28;21055;-61
2022/03/20 13:51:04;;;;;;;69.35;34.03;;;;;;;;;;5077803;28;20035;-61
2022/03/20 13:53:31;;;;;;;72.20;35.25;;;;;;;;;;5065384;28;20035;-61
2022/03/20 13:55:58;;;;;;;76.53;35.85;;;;;;;;;;5076749;28;20012;-61
2022/03/20 13:58:24;;;;;;;66.60;36.03;;;;;;;;;;5069296;28;20027;-61
2022/03/20 14:00:58;;;;;;;67.68;32.88;;;;;;;;;;5068366;28;20543;-61
2022/03/20 14:03:27;;;;;;;65.47;33.78;;;;;;;;;;5071493;28;20051;-61
2022/03/20 14:05:55;;;;;;;58.70;31.90;;;;;;;;;;5078580;28;20388;-61
2022/03/20 14:08:21;;;;;;;59.15;31.35;;;;;;;;;;5080435;28;20545;-61
2022/03/20 14:10:58;;;;;;;66.05;32.60;;;;;;;;;;5081761;28;20023;-61
2022/03/20 14:13:26;;;;;;;67.57;32.08;;;;;;;;;;5082062;28;20552;-61
2022/03/20 14:15:55;;;;;;;58.90;31.63;;;;;;;;;;5086100;28;20035;-61
2022/03/20 14:18:22;;;;;;;64.97;33.33;;;;;;;;;;5075516;28;20069;-61
2022/03/20 14:20:48;;;;;;;63.33;32.35;;;;;;;;;;5074346;28;20047;-61
2022/03/20 14:23:15;;;;;;;62.65;31.75;;;;;;;;;;5069030;28;20086;-61
2022/03/20 14:25:44;;;;;;;60.63;31.90;;;;;;;;;;5070881;28;20032;-61
2022/03/20 14:28:11;;;;;;;67.28;31.45;;;;;;;;;;5068365;28;20052;-61
2022/03/20 14:41:46;;;;;;;61.78;31.25;;;;;;;;;;5077048;28;20056;-61
2022/03/20 14:44:16;;;;;;;63.30;31.17;;;;;;;;;;5072331;28;20075;-61
2022/03/20 14:46:43;;;;;;;63.55;31.70;;;;;;;;;;5072076;28;20061;-61
2022/03/20 14:49:10;;;;;;;60.47;31.20;;;;;;;;;;5084575;28;20035;-61
2022/03/20 14:51:37;;;;;;;57.88;29.27;;;;;;;;;;5071699;28;20020;-61
2022/03/20 14:54:04;;;;;;;56.83;30.05;;;;;;;;;;5075018;28;20546;-61
2022/03/20 14:56:32;;;;;;;59.13;30.52;;;;;;;;;;5081453;28;20032;-61
2022/03/20 14:58:58;;;;;;;60.78;30.00;;;;;;;;;;5085430;28;20117;-61
2022/03/20 15:01:25;;;;;;;67.72;32.47;;;;;;;;;;5071451;28;20025;-61
2022/03/20 15:03:51;;;;;;;61.45;30.63;;;;;;;;;;5072569;28;21199;-61